sensor_id;sensor_type;location;lat;lon;timestamp;P1;durP1;ratioP1;P2;durP2;ratioP2
60030;SDS011;45901;47.600;9.890;2023-05-07T00:00:04;6.30;;;2.90;;
60030;SDS011;45901;47.600;9.890;2023-05-07T00:02:34;6.00;;;2.83;;
60030;SDS011;45901;47.600;9.890;2023-05-07T00:05:02;6.97;;;2.57;;
60030;SDS011;45901;47.600;9.890;2023-05-07T00:07:30;4.80;;;2.47;;
60030;SDS011;45901;47.600;9.890;2023-05-07T00:09:58;5.67;;;3.07;;
60030;SDS011;45901;47.600;9.890;2023-05-07T00:12:27;7.17;;;2.77;;
60030;SDS011;45901;47.600;9.890;2023-05-07T00:14:56;7.97;;;2.80;;
60030;SDS011;45901;47.600;9.890;2023-05-07T00:17:24;7.03;;;3.13;;
60030;SDS011;45901;47.600;9.890;2023-05-07T00:19:51;4.87;;;3.23;;
60030;SDS011;45901;47.600;9.890;2023-05-07T00:22:18;5.00;;;3.10;;
60030;SDS011;45901;47.600;9.890;2023-05-07T00:24:46;5.40;;;3.33;;
60030;SDS011;45901;47.600;9.890;2023-05-07T00:27:13;5.07;;;3.60;;
60030;SDS011;45901;47.600;9.890;2023-05-07T00:29:42;6.30;;;3.17;;
60030;SDS011;45901;47.600;9.890;2023-05-07T00:32:10;5.33;;;2.60;;
60030;SDS011;45901;47.600;9.890;2023-05-07T00:34:37;5.40;;;2.70;;
60030;SDS011;45901;47.600;9.890;2023-05-07T00:37:05;3.00;;;2.10;;
60030;SDS011;45901;47.600;9.890;2023-05-07T00:39:34;7.97;;;2.90;;
60030;SDS011;45901;47.600;9.890;2023-05-07T00:42:01;4.53;;;2.63;;
60030;SDS011;45901;47.600;9.890;2023-05-07T00:44:29;5.43;;;2.23;;
60030;SDS011;45901;47.600;9.890;2023-05-07T00:46:58;3.70;;;2.60;;
60030;SDS011;45901;47.600;9.890;2023-05-07T00:49:32;7.00;;;2.67;;
60030;SDS011;45901;47.600;9.890;2023-05-07T00:52:05;7.03;;;2.83;;
60030;SDS011;45901;47.600;9.890;2023-05-07T00:54:33;5.83;;;2.73;;
60030;SDS011;45901;47.600;9.890;2023-05-07T00:57:01;6.63;;;2.30;;
60030;SDS011;45901;47.600;9.890;2023-05-07T00:59:29;3.03;;;2.43;;
60030;SDS011;45901;47.600;9.890;2023-05-07T01:01:59;3.80;;;2.40;;
60030;SDS011;45901;47.600;9.890;2023-05-07T01:04:27;6.03;;;2.53;;
60030;SDS011;45901;47.600;9.890;2023-05-07T01:06:54;4.93;;;2.50;;
60030;SDS011;45901;47.600;9.890;2023-05-07T01:09:23;4.87;;;2.70;;
60030;SDS011;45901;47.600;9.890;2023-05-07T01:11:51;4.57;;;2.93;;
60030;SDS011;45901;47.600;9.890;2023-05-07T01:14:19;6.57;;;3.00;;
60030;SDS011;45901;47.600;9.890;2023-05-07T01:16:48;5.23;;;2.53;;
60030;SDS011;45901;47.600;9.890;2023-05-07T01:19:18;4.80;;;2.60;;
60030;SDS011;45901;47.600;9.890;2023-05-07T01:21:46;6.17;;;2.80;;
60030;SDS011;45901;47.600;9.890;2023-05-07T01:24:16;4.63;;;2.60;;
60030;SDS011;45901;47.600;9.890;2023-05-07T01:26:45;7.20;;;2.87;;
60030;SDS011;45901;47.600;9.890;2023-05-07T01:29:12;5.97;;;2.77;;
60030;SDS011;45901;47.600;9.890;2023-05-07T01:31:39;3.77;;;2.30;;
60030;SDS011;45901;47.600;9.890;2023-05-07T01:34:08;4.17;;;2.83;;
60030;SDS011;45901;47.600;9.890;2023-05-07T01:36:39;7.53;;;2.77;;
60030;SDS011;45901;47.600;9.890;2023-05-07T01:39:09;3.37;;;2.40;;
60030;SDS011;45901;47.600;9.890;2023-05-07T01:41:38;7.87;;;2.50;;
60030;SDS011;45901;47.600;9.890;2023-05-07T01:44:06;5.87;;;2.70;;
60030;SDS011;45901;47.600;9.890;2023-05-07T01:46:36;4.13;;;2.53;;
60030;SDS011;45901;47.600;9.890;2023-05-07T01:49:03;4.40;;;2.67;;
60030;SDS011;45901;47.600;9.890;2023-05-07T01:51:31;3.03;;;2.20;;
60030;SDS011;45901;47.600;9.890;2023-05-07T01:53:59;4.53;;;2.20;;
60030;SDS011;45901;47.600;9.890;2023-05-07T01:56:26;5.33;;;2.40;;
60030;SDS011;45901;47.600;9.890;2023-05-07T01:58:55;4.00;;;2.20;;
60030;SDS011;45901;47.600;9.890;2023-05-07T03:05:50;2.57;;;2.00;;
60030;SDS011;45901;47.600;9.890;2023-05-07T03:08:17;2.37;;;1.80;;
60030;SDS011;45901;47.600;9.890;2023-05-07T03:10:44;3.03;;;2.07;;
60030;SDS011;45901;47.600;9.890;2023-05-07T03:13:11;4.00;;;2.03;;
60030;SDS011;45901;47.600;9.890;2023-05-07T03:15:38;5.90;;;2.20;;
60030;SDS011;45901;47.600;9.890;2023-05-07T03:18:06;6.33;;;2.10;;
60030;SDS011;45901;47.600;9.890;2023-05-07T03:20:34;3.03;;;2.10;;
60030;SDS011;45901;47.600;9.890;2023-05-07T03:23:01;3.17;;;2.13;;
60030;SDS011;45901;47.600;9.890;2023-05-07T03:25:29;8.47;;;2.60;;
60030;SDS011;45901;47.600;9.890;2023-05-07T03:27:56;5.07;;;1.80;;
60030;SDS011;45901;47.600;9.890;2023-05-07T03:30:23;3.63;;;2.37;;
60030;SDS011;45901;47.600;9.890;2023-05-07T03:32:50;6.17;;;2.47;;
60030;SDS011;45901;47.600;9.890;2023-05-07T03:35:18;2.93;;;2.03;;
60030;SDS011;45901;47.600;9.890;2023-05-07T03:37:46;3.27;;;2.10;;
60030;SDS011;45901;47.600;9.890;2023-05-07T03:40:14;6.73;;;2.83;;
60030;SDS011;45901;47.600;9.890;2023-05-07T03:42:41;6.27;;;2.03;;
60030;SDS011;45901;47.600;9.890;2023-05-07T03:45:08;7.83;;;2.43;;
60030;SDS011;45901;47.600;9.890;2023-05-07T03:47:36;4.77;;;2.13;;
60030;SDS011;45901;47.600;9.890;2023-05-07T03:50:03;3.00;;;2.13;;
60030;SDS011;45901;47.600;9.890;2023-05-07T03:52:31;3.73;;;1.93;;
60030;SDS011;45901;47.600;9.890;2023-05-07T03:55:00;3.53;;;2.20;;
60030;SDS011;45901;47.600;9.890;2023-05-07T03:57:27;4.37;;;2.23;;
60030;SDS011;45901;47.600;9.890;2023-05-07T03:59:54;3.90;;;2.20;;
60030;SDS011;45901;47.600;9.890;2023-05-07T04:02:21;4.87;;;2.17;;
60030;SDS011;45901;47.600;9.890;2023-05-07T04:04:48;4.03;;;2.40;;
60030;SDS011;45901;47.600;9.890;2023-05-07T04:07:16;4.37;;;2.20;;
60030;SDS011;45901;47.600;9.890;2023-05-07T04:09:43;4.30;;;2.20;;
60030;SDS011;45901;47.600;9.890;2023-05-07T04:12:11;6.10;;;2.50;;
60030;SDS011;45901;47.600;9.890;2023-05-07T04:14:39;3.60;;;2.70;;
60030;SDS011;45901;47.600;9.890;2023-05-07T04:17:06;3.47;;;2.30;;
60030;SDS011;45901;47.600;9.890;2023-05-07T04:19:34;4.80;;;2.33;;
60030;SDS011;45901;47.600;9.890;2023-05-07T04:22:02;7.83;;;2.53;;
60030;SDS011;45901;47.600;9.890;2023-05-07T04:24:30;3.53;;;2.30;;
60030;SDS011;45901;47.600;9.890;2023-05-07T04:26:59;3.87;;;2.00;;
60030;SDS011;45901;47.600;9.890;2023-05-07T04:29:28;3.60;;;2.50;;
60030;SDS011;45901;47.600;9.890;2023-05-07T04:31:55;4.37;;;2.00;;
60030;SDS011;45901;47.600;9.890;2023-05-07T04:34:23;4.63;;;2.30;;
60030;SDS011;45901;47.600;9.890;2023-05-07T04:36:50;6.93;;;2.17;;
60030;SDS011;45901;47.600;9.890;2023-05-07T04:39:18;5.97;;;2.30;;
60030;SDS011;45901;47.600;9.890;2023-05-07T04:41:45;6.80;;;2.20;;
60030;SDS011;45901;47.600;9.890;2023-05-07T04:44:13;4.37;;;2.17;;
60030;SDS011;45901;47.600;9.890;2023-05-07T04:46:41;5.93;;;2.03;;
60030;SDS011;45901;47.600;9.890;2023-05-07T04:49:08;3.63;;;2.20;;
60030;SDS011;45901;47.600;9.890;2023-05-07T04:51:36;11.17;;;2.07;;
60030;SDS011;45901;47.600;9.890;2023-05-07T04:54:03;4.43;;;2.50;;
60030;SDS011;45901;47.600;9.890;2023-05-07T04:56:30;6.17;;;2.83;;
60030;SDS011;45901;47.600;9.890;2023-05-07T04:58:58;6.03;;;2.60;;
60030;SDS011;45901;47.600;9.890;2023-05-07T05:01:25;3.77;;;2.77;;
60030;SDS011;45901;47.600;9.890;2023-05-07T05:03:54;6.33;;;2.67;;
60030;SDS011;45901;47.600;9.890;2023-05-07T05:06:21;3.33;;;2.57;;
60030;SDS011;45901;47.600;9.890;2023-05-07T05:08:48;7.73;;;2.63;;
60030;SDS011;45901;47.600;9.890;2023-05-07T05:11:15;3.53;;;2.73;;
60030;SDS011;45901;47.600;9.890;2023-05-07T05:13:43;6.40;;;3.23;;
60030;SDS011;45901;47.600;9.890;2023-05-07T05:16:12;4.70;;;2.60;;
60030;SDS011;45901;47.600;9.890;2023-05-07T05:18:39;5.53;;;2.80;;
60030;SDS011;45901;47.600;9.890;2023-05-07T05:21:08;5.23;;;3.17;;
60030;SDS011;45901;47.600;9.890;2023-05-07T05:23:35;3.73;;;2.50;;
60030;SDS011;45901;47.600;9.890;2023-05-07T05:26:02;8.77;;;2.53;;
60030;SDS011;45901;47.600;9.890;2023-05-07T05:28:29;4.93;;;2.03;;
60030;SDS011;45901;47.600;9.890;2023-05-07T05:30:56;2.93;;;2.00;;
60030;SDS011;45901;47.600;9.890;2023-05-07T05:33:23;4.07;;;2.20;;
60030;SDS011;45901;47.600;9.890;2023-05-07T05:35:51;4.03;;;2.10;;
60030;SDS011;45901;47.600;9.890;2023-05-07T05:38:21;5.00;;;2.30;;
60030;SDS011;45901;47.600;9.890;2023-05-07T05:40:48;2.50;;;1.67;;
60030;SDS011;45901;47.600;9.890;2023-05-07T05:43:16;4.43;;;1.90;;
60030;SDS011;45901;47.600;9.890;2023-05-07T05:45:43;2.37;;;1.53;;
60030;SDS011;45901;47.600;9.890;2023-05-07T05:48:11;4.00;;;1.77;;
60030;SDS011;45901;47.600;9.890;2023-05-07T05:50:38;3.07;;;1.53;;
60030;SDS011;45901;47.600;9.890;2023-05-07T05:53:05;3.13;;;2.00;;
60030;SDS011;45901;47.600;9.890;2023-05-07T05:55:34;4.93;;;1.90;;
60030;SDS011;45901;47.600;9.890;2023-05-07T05:58:01;4.97;;;1.50;;
60030;SDS011;45901;47.600;9.890;2023-05-07T06:00:29;3.33;;;1.60;;
60030;SDS011;45901;47.600;9.890;2023-05-07T06:02:56;4.77;;;1.90;;
60030;SDS011;45901;47.600;9.890;2023-05-07T06:05:23;2.70;;;1.77;;
60030;SDS011;45901;47.600;9.890;2023-05-07T06:07:50;3.43;;;1.83;;
60030;SDS011;45901;47.600;9.890;2023-05-07T06:10:17;5.23;;;2.20;;
60030;SDS011;45901;47.600;9.890;2023-05-07T06:12:46;3.77;;;1.53;;
60030;SDS011;45901;47.600;9.890;2023-05-07T06:15:13;2.63;;;1.33;;
60030;SDS011;45901;47.600;9.890;2023-05-07T06:17:40;3.77;;;1.90;;
60030;SDS011;45901;47.600;9.890;2023-05-07T06:20:08;4.07;;;1.70;;
60030;SDS011;45901;47.600;9.890;2023-05-07T06:22:35;4.37;;;1.90;;
60030;SDS011;45901;47.600;9.890;2023-05-07T06:25:03;4.23;;;3.50;;
60030;SDS011;45901;47.600;9.890;2023-05-07T06:27:30;3.57;;;2.43;;
60030;SDS011;45901;47.600;9.890;2023-05-07T06:29:59;4.57;;;3.13;;
60030;SDS011;45901;47.600;9.890;2023-05-07T06:32:26;5.37;;;2.20;;
60030;SDS011;45901;47.600;9.890;2023-05-07T06:34:53;3.47;;;2.10;;
60030;SDS011;45901;47.600;9.890;2023-05-07T06:37:20;3.20;;;2.00;;
60030;SDS011;45901;47.600;9.890;2023-05-07T06:39:48;3.23;;;2.03;;
60030;SDS011;45901;47.600;9.890;2023-05-07T06:42:15;3.97;;;1.80;;
60030;SDS011;45901;47.600;9.890;2023-05-07T06:44:42;2.77;;;1.63;;
60030;SDS011;45901;47.600;9.890;2023-05-07T06:47:10;2.60;;;1.40;;
60030;SDS011;45901;47.600;9.890;2023-05-07T06:49:38;4.93;;;1.90;;
60030;SDS011;45901;47.600;9.890;2023-05-07T06:52:05;2.57;;;1.67;;
60030;SDS011;45901;47.600;9.890;2023-05-07T06:54:32;4.13;;;1.80;;
60030;SDS011;45901;47.600;9.890;2023-05-07T06:56:59;2.93;;;1.43;;
60030;SDS011;45901;47.600;9.890;2023-05-07T06:59:26;4.53;;;1.70;;
60030;SDS011;45901;47.600;9.890;2023-05-07T07:01:54;1.90;;;1.50;;
60030;SDS011;45901;47.600;9.890;2023-05-07T07:04:22;2.43;;;1.63;;
60030;SDS011;45901;47.600;9.890;2023-05-07T07:06:51;7.00;;;2.00;;
60030;SDS011;45901;47.600;9.890;2023-05-07T07:09:21;3.40;;;2.10;;
60030;SDS011;45901;47.600;9.890;2023-05-07T07:11:48;4.30;;;2.00;;
60030;SDS011;45901;47.600;9.890;2023-05-07T07:14:16;4.43;;;1.70;;
60030;SDS011;45901;47.600;9.890;2023-05-07T07:16:43;2.53;;;1.60;;
60030;SDS011;45901;47.600;9.890;2023-05-07T07:19:11;3.03;;;1.70;;
60030;SDS011;45901;47.600;9.890;2023-05-07T07:21:41;3.13;;;1.70;;
60030;SDS011;45901;47.600;9.890;2023-05-07T07:24:09;4.87;;;1.90;;
60030;SDS011;45901;47.600;9.890;2023-05-07T07:26:37;6.93;;;1.63;;
60030;SDS011;45901;47.600;9.890;2023-05-07T07:29:08;2.07;;;1.40;;
60030;SDS011;45901;47.600;9.890;2023-05-07T07:31:36;5.00;;;1.57;;
60030;SDS011;45901;47.600;9.890;2023-05-07T07:34:03;4.63;;;1.63;;
60030;SDS011;45901;47.600;9.890;2023-05-07T07:36:30;3.83;;;1.63;;
60030;SDS011;45901;47.600;9.890;2023-05-07T07:38:59;7.73;;;2.20;;
60030;SDS011;45901;47.600;9.890;2023-05-07T07:41:26;3.20;;;1.80;;
60030;SDS011;45901;47.600;9.890;2023-05-07T07:43:54;3.47;;;1.90;;
60030;SDS011;45901;47.600;9.890;2023-05-07T07:46:21;5.70;;;1.70;;
60030;SDS011;45901;47.600;9.890;2023-05-07T07:48:48;3.83;;;1.93;;
60030;SDS011;45901;47.600;9.890;2023-05-07T07:51:15;5.80;;;1.80;;
60030;SDS011;45901;47.600;9.890;2023-05-07T07:53:42;4.60;;;1.80;;
60030;SDS011;45901;47.600;9.890;2023-05-07T07:56:11;4.80;;;1.80;;
60030;SDS011;45901;47.600;9.890;2023-05-07T07:58:38;2.03;;;1.40;;
60030;SDS011;45901;47.600;9.890;2023-05-07T08:01:05;2.80;;;1.60;;
60030;SDS011;45901;47.600;9.890;2023-05-07T08:03:33;5.03;;;1.63;;
60030;SDS011;45901;47.600;9.890;2023-05-07T08:06:00;3.80;;;1.70;;
60030;SDS011;45901;47.600;9.890;2023-05-07T08:08:28;2.53;;;1.30;;
60030;SDS011;45901;47.600;9.890;2023-05-07T08:10:56;5.17;;;1.70;;
60030;SDS011;45901;47.600;9.890;2023-05-07T08:13:24;4.37;;;1.70;;
60030;SDS011;45901;47.600;9.890;2023-05-07T08:15:51;4.10;;;1.30;;
60030;SDS011;45901;47.600;9.890;2023-05-07T08:18:30;3.93;;;1.40;;
60030;SDS011;45901;47.600;9.890;2023-05-07T08:20:58;3.40;;;1.33;;
60030;SDS011;45901;47.600;9.890;2023-05-07T08:23:26;3.90;;;1.43;;
60030;SDS011;45901;47.600;9.890;2023-05-07T08:25:53;2.43;;;1.30;;
60030;SDS011;45901;47.600;9.890;2023-05-07T08:28:22;1.70;;;1.33;;
60030;SDS011;45901;47.600;9.890;2023-05-07T08:30:52;2.07;;;1.30;;
60030;SDS011;45901;47.600;9.890;2023-05-07T08:37:59;1.97;;;1.43;;
60030;SDS011;45901;47.600;9.890;2023-05-07T08:40:42;3.73;;;1.43;;
60030;SDS011;45901;47.600;9.890;2023-05-07T08:48:16;8.80;;;1.07;;
60030;SDS011;45901;47.600;9.890;2023-05-07T08:50:43;3.37;;;0.90;;
60030;SDS011;45901;47.600;9.890;2023-05-07T08:53:11;1.07;;;0.80;;
60030;SDS011;45901;47.600;9.890;2023-05-07T08:55:39;4.67;;;1.20;;
60030;SDS011;45901;47.600;9.890;2023-05-07T08:58:07;1.47;;;0.77;;
60030;SDS011;45901;47.600;9.890;2023-05-07T09:00:34;2.87;;;1.00;;
60030;SDS011;45901;47.600;9.890;2023-05-07T09:03:03;2.57;;;0.93;;
60030;SDS011;45901;47.600;9.890;2023-05-07T09:05:32;1.73;;;0.80;;
60030;SDS011;45901;47.600;9.890;2023-05-07T09:07:59;2.87;;;0.80;;
60030;SDS011;45901;47.600;9.890;2023-05-07T09:10:28;1.40;;;0.90;;
60030;SDS011;45901;47.600;9.890;2023-05-07T09:12:56;2.13;;;0.63;;
60030;SDS011;45901;47.600;9.890;2023-05-07T09:15:24;0.50;;;0.50;;
60030;SDS011;45901;47.600;9.890;2023-05-07T09:17:58;1.13;;;0.87;;
60030;SDS011;45901;47.600;9.890;2023-05-07T09:20:27;2.10;;;0.80;;
60030;SDS011;45901;47.600;9.890;2023-05-07T09:23:04;1.00;;;0.73;;
60030;SDS011;45901;47.600;9.890;2023-05-07T09:25:35;1.63;;;1.00;;
60030;SDS011;45901;47.600;9.890;2023-05-07T09:31:40;2.60;;;0.90;;
60030;SDS011;45901;47.600;9.890;2023-05-07T09:34:12;3.30;;;0.87;;
60030;SDS011;45901;47.600;9.890;2023-05-07T09:36:41;1.40;;;0.60;;
60030;SDS011;45901;47.600;9.890;2023-05-07T09:39:08;0.70;;;0.60;;
60030;SDS011;45901;47.600;9.890;2023-05-07T09:41:47;1.57;;;0.80;;
60030;SDS011;45901;47.600;9.890;2023-05-07T09:44:20;1.10;;;0.50;;
60030;SDS011;45901;47.600;9.890;2023-05-07T09:46:51;1.80;;;0.90;;
60030;SDS011;45901;47.600;9.890;2023-05-07T09:49:21;2.80;;;1.10;;
60030;SDS011;45901;47.600;9.890;2023-05-07T09:51:52;4.40;;;1.00;;
60030;SDS011;45901;47.600;9.890;2023-05-07T09:54:20;1.13;;;0.60;;
60030;SDS011;45901;47.600;9.890;2023-05-07T09:56:48;3.27;;;0.90;;
60030;SDS011;45901;47.600;9.890;2023-05-07T09:59:16;1.77;;;0.70;;
60030;SDS011;45901;47.600;9.890;2023-05-07T10:01:44;3.87;;;0.80;;
60030;SDS011;45901;47.600;9.890;2023-05-07T10:04:12;1.27;;;0.80;;
60030;SDS011;45901;47.600;9.890;2023-05-07T10:06:41;4.33;;;1.07;;
60030;SDS011;45901;47.600;9.890;2023-05-07T10:09:12;2.43;;;1.13;;
60030;SDS011;45901;47.600;9.890;2023-05-07T10:11:41;2.97;;;0.97;;
60030;SDS011;45901;47.600;9.890;2023-05-07T10:14:08;2.93;;;0.83;;
60030;SDS011;45901;47.600;9.890;2023-05-07T10:16:36;3.27;;;1.20;;
60030;SDS011;45901;47.600;9.890;2023-05-07T10:19:03;1.90;;;1.00;;
60030;SDS011;45901;47.600;9.890;2023-05-07T10:21:32;3.63;;;1.00;;
60030;SDS011;45901;47.600;9.890;2023-05-07T10:24:03;3.33;;;1.10;;
60030;SDS011;45901;47.600;9.890;2023-05-07T10:26:50;3.13;;;1.13;;
60030;SDS011;45901;47.600;9.890;2023-05-07T10:29:27;2.37;;;1.10;;
60030;SDS011;45901;47.600;9.890;2023-05-07T10:32:11;2.70;;;1.17;;
60030;SDS011;45901;47.600;9.890;2023-05-07T10:34:58;2.23;;;1.10;;
60030;SDS011;45901;47.600;9.890;2023-05-07T10:37:30;2.37;;;1.30;;
60030;SDS011;45901;47.600;9.890;2023-05-07T10:40:00;1.63;;;0.90;;
60030;SDS011;45901;47.600;9.890;2023-05-07T10:42:31;3.83;;;1.17;;
60030;SDS011;45901;47.600;9.890;2023-05-07T10:44:59;1.17;;;0.97;;
60030;SDS011;45901;47.600;9.890;2023-05-07T10:50:33;3.63;;;1.20;;
60030;SDS011;45901;47.600;9.890;2023-05-07T10:58:57;3.43;;;1.00;;
60030;SDS011;45901;47.600;9.890;2023-05-07T11:02:06;1.70;;;0.77;;
60030;SDS011;45901;47.600;9.890;2023-05-07T11:04:36;4.47;;;1.70;;
60030;SDS011;45901;47.600;9.890;2023-05-07T11:09:57;3.90;;;1.77;;
60030;SDS011;45901;47.600;9.890;2023-05-07T11:15:36;1.13;;;0.90;;
60030;SDS011;45901;47.600;9.890;2023-05-07T11:18:07;4.00;;;1.20;;
60030;SDS011;45901;47.600;9.890;2023-05-07T11:20:47;3.60;;;1.13;;
60030;SDS011;45901;47.600;9.890;2023-05-07T11:26:25;5.33;;;1.60;;
60030;SDS011;45901;47.600;9.890;2023-05-07T11:28:57;3.97;;;1.30;;
60030;SDS011;45901;47.600;9.890;2023-05-07T11:31:28;2.27;;;1.40;;
60030;SDS011;45901;47.600;9.890;2023-05-07T11:33:57;3.73;;;1.20;;
60030;SDS011;45901;47.600;9.890;2023-05-07T11:36:25;4.70;;;1.30;;
60030;SDS011;45901;47.600;9.890;2023-05-07T11:38:59;3.13;;;1.50;;
60030;SDS011;45901;47.600;9.890;2023-05-07T11:41:33;2.10;;;0.97;;
60030;SDS011;45901;47.600;9.890;2023-05-07T11:44:02;3.30;;;1.30;;
60030;SDS011;45901;47.600;9.890;2023-05-07T11:46:30;3.43;;;1.13;;
60030;SDS011;45901;47.600;9.890;2023-05-07T11:49:03;2.00;;;0.93;;
60030;SDS011;45901;47.600;9.890;2023-05-07T11:51:30;2.67;;;1.10;;
60030;SDS011;45901;47.600;9.890;2023-05-07T11:53:59;1.80;;;1.03;;
60030;SDS011;45901;47.600;9.890;2023-05-07T11:56:26;3.13;;;1.10;;
60030;SDS011;45901;47.600;9.890;2023-05-07T11:58:53;1.40;;;0.80;;
60030;SDS011;45901;47.600;9.890;2023-05-07T12:01:20;7.47;;;1.17;;
60030;SDS011;45901;47.600;9.890;2023-05-07T12:03:49;3.83;;;1.33;;
60030;SDS011;45901;47.600;9.890;2023-05-07T12:06:16;3.70;;;1.17;;
60030;SDS011;45901;47.600;9.890;2023-05-07T12:08:44;2.33;;;1.10;;
60030;SDS011;45901;47.600;9.890;2023-05-07T12:11:13;1.83;;;1.00;;
60030;SDS011;45901;47.600;9.890;2023-05-07T12:13:43;3.50;;;0.93;;
60030;SDS011;45901;47.600;9.890;2023-05-07T12:16:11;2.57;;;1.20;;
60030;SDS011;45901;47.600;9.890;2023-05-07T12:18:38;4.73;;;1.20;;
60030;SDS011;45901;47.600;9.890;2023-05-07T12:21:07;4.27;;;1.40;;
60030;SDS011;45901;47.600;9.890;2023-05-07T12:23:36;3.70;;;1.10;;
60030;SDS011;45901;47.600;9.890;2023-05-07T12:26:03;5.10;;;1.20;;
60030;SDS011;45901;47.600;9.890;2023-05-07T12:28:31;2.50;;;1.20;;
60030;SDS011;45901;47.600;9.890;2023-05-07T12:31:03;5.57;;;1.30;;
60030;SDS011;45901;47.600;9.890;2023-05-07T12:33:31;2.43;;;1.30;;
60030;SDS011;45901;47.600;9.890;2023-05-07T12:36:02;1.77;;;0.87;;
60030;SDS011;45901;47.600;9.890;2023-05-07T12:38:37;2.87;;;1.20;;
60030;SDS011;45901;47.600;9.890;2023-05-07T12:41:06;3.23;;;1.00;;
60030;SDS011;45901;47.600;9.890;2023-05-07T12:43:34;6.03;;;1.17;;
60030;SDS011;45901;47.600;9.890;2023-05-07T12:46:03;2.33;;;1.45;;
60030;SDS011;45901;47.600;9.890;2023-05-07T12:48:32;3.75;;;1.20;;
60030;SDS011;45901;47.600;9.890;2023-05-07T12:51:02;3.92;;;1.50;;
60030;SDS011;45901;47.600;9.890;2023-05-07T12:53:40;3.90;;;1.25;;
60030;SDS011;45901;47.600;9.890;2023-05-07T12:56:08;3.83;;;1.30;;
60030;SDS011;45901;47.600;9.890;2023-05-07T12:58:36;2.55;;;1.20;;
60030;SDS011;45901;47.600;9.890;2023-05-07T13:01:04;3.28;;;1.02;;
60030;SDS011;45901;47.600;9.890;2023-05-07T13:03:35;2.35;;;1.10;;
60030;SDS011;45901;47.600;9.890;2023-05-07T13:06:04;2.30;;;1.15;;
60030;SDS011;45901;47.600;9.890;2023-05-07T13:08:35;2.95;;;1.25;;
60030;SDS011;45901;47.600;9.890;2023-05-07T13:11:09;2.85;;;1.40;;
60030;SDS011;45901;47.600;9.890;2023-05-07T13:13:37;2.75;;;1.30;;
60030;SDS011;45901;47.600;9.890;2023-05-07T13:16:07;5.22;;;1.30;;
60030;SDS011;45901;47.600;9.890;2023-05-07T13:18:36;1.58;;;1.20;;
60030;SDS011;45901;47.600;9.890;2023-05-07T13:21:04;3.53;;;1.38;;
60030;SDS011;45901;47.600;9.890;2023-05-07T13:23:32;1.45;;;1.05;;
60030;SDS011;45901;47.600;9.890;2023-05-07T13:25:59;2.55;;;1.55;;
60030;SDS011;45901;47.600;9.890;2023-05-07T13:28:28;2.45;;;1.13;;
60030;SDS011;45901;47.600;9.890;2023-05-07T13:30:55;2.88;;;1.50;;
60030;SDS011;45901;47.600;9.890;2023-05-07T13:33:22;3.00;;;1.10;;
60030;SDS011;45901;47.600;9.890;2023-05-07T13:35:50;3.53;;;1.10;;
60030;SDS011;45901;47.600;9.890;2023-05-07T13:38:18;4.40;;;1.00;;
60030;SDS011;45901;47.600;9.890;2023-05-07T13:40:45;1.83;;;0.98;;
60030;SDS011;45901;47.600;9.890;2023-05-07T13:43:12;3.00;;;1.30;;
60030;SDS011;45901;47.600;9.890;2023-05-07T13:45:40;4.38;;;1.20;;
60030;SDS011;45901;47.600;9.890;2023-05-07T13:48:08;5.45;;;1.13;;
60030;SDS011;45901;47.600;9.890;2023-05-07T13:50:35;1.50;;;1.00;;
60030;SDS011;45901;47.600;9.890;2023-05-07T13:53:02;3.30;;;1.17;;
60030;SDS011;45901;47.600;9.890;2023-05-07T13:55:30;2.72;;;1.42;;
60030;SDS011;45901;47.600;9.890;2023-05-07T13:57:57;2.33;;;1.27;;
60030;SDS011;45901;47.600;9.890;2023-05-07T14:00:26;3.22;;;0.98;;
60030;SDS011;45901;47.600;9.890;2023-05-07T14:02:56;2.35;;;1.00;;
60030;SDS011;45901;47.600;9.890;2023-05-07T14:05:23;2.38;;;1.40;;
60030;SDS011;45901;47.600;9.890;2023-05-07T14:07:53;2.10;;;1.05;;
60030;SDS011;45901;47.600;9.890;2023-05-07T14:10:20;2.83;;;1.15;;
60030;SDS011;45901;47.600;9.890;2023-05-07T14:12:47;1.42;;;1.02;;
60030;SDS011;45901;47.600;9.890;2023-05-07T14:15:15;2.53;;;1.15;;
60030;SDS011;45901;47.600;9.890;2023-05-07T14:17:42;2.72;;;1.10;;
60030;SDS011;45901;47.600;9.890;2023-05-07T14:20:11;2.25;;;1.23;;
60030;SDS011;45901;47.600;9.890;2023-05-07T14:22:39;4.35;;;1.15;;
60030;SDS011;45901;47.600;9.890;2023-05-07T14:25:07;3.97;;;1.05;;
60030;SDS011;45901;47.600;9.890;2023-05-07T14:27:35;2.28;;;1.27;;
60030;SDS011;45901;47.600;9.890;2023-05-07T14:30:03;1.33;;;0.75;;
60030;SDS011;45901;47.600;9.890;2023-05-07T14:32:32;5.88;;;1.58;;
60030;SDS011;45901;47.600;9.890;2023-05-07T14:34:59;2.10;;;1.15;;
60030;SDS011;45901;47.600;9.890;2023-05-07T14:37:28;2.15;;;1.10;;
60030;SDS011;45901;47.600;9.890;2023-05-07T14:39:55;4.43;;;1.30;;
60030;SDS011;45901;47.600;9.890;2023-05-07T14:42:22;2.42;;;1.10;;
60030;SDS011;45901;47.600;9.890;2023-05-07T14:44:49;3.13;;;1.05;;
60030;SDS011;45901;47.600;9.890;2023-05-07T14:47:18;3.20;;;1.17;;
60030;SDS011;45901;47.600;9.890;2023-05-07T14:49:45;1.98;;;1.02;;
60030;SDS011;45901;47.600;9.890;2023-05-07T14:52:16;3.25;;;1.15;;
60030;SDS011;45901;47.600;9.890;2023-05-07T14:59:13;1.53;;;1.20;;
60030;SDS011;45901;47.600;9.890;2023-05-07T15:02:19;1.77;;;1.03;;
60030;SDS011;45901;47.600;9.890;2023-05-07T15:04:47;1.93;;;1.00;;
60030;SDS011;45901;47.600;9.890;2023-05-07T15:07:15;4.50;;;1.20;;
60030;SDS011;45901;47.600;9.890;2023-05-07T15:09:42;3.43;;;1.30;;
60030;SDS011;45901;47.600;9.890;2023-05-07T15:12:13;3.77;;;1.50;;
60030;SDS011;45901;47.600;9.890;2023-05-07T15:14:41;3.03;;;1.13;;
60030;SDS011;45901;47.600;9.890;2023-05-07T15:17:10;1.17;;;0.80;;
60030;SDS011;45901;47.600;9.890;2023-05-07T15:19:37;1.67;;;1.17;;
60030;SDS011;45901;47.600;9.890;2023-05-07T15:22:04;2.57;;;0.90;;
60030;SDS011;45901;47.600;9.890;2023-05-07T15:24:32;2.20;;;1.10;;
60030;SDS011;45901;47.600;9.890;2023-05-07T15:26:59;1.97;;;0.87;;
60030;SDS011;45901;47.600;9.890;2023-05-07T15:29:29;1.20;;;0.70;;
60030;SDS011;45901;47.600;9.890;2023-05-07T15:31:56;2.37;;;0.97;;
60030;SDS011;45901;47.600;9.890;2023-05-07T15:34:24;4.50;;;0.97;;
60030;SDS011;45901;47.600;9.890;2023-05-07T15:36:51;1.37;;;0.60;;
60030;SDS011;45901;47.600;9.890;2023-05-07T15:39:18;3.63;;;0.93;;
60030;SDS011;45901;47.600;9.890;2023-05-07T15:41:45;2.07;;;0.80;;
60030;SDS011;45901;47.600;9.890;2023-05-07T15:44:12;0.83;;;0.80;;
60030;SDS011;45901;47.600;9.890;2023-05-07T15:46:41;1.67;;;0.90;;
60030;SDS011;45901;47.600;9.890;2023-05-07T15:49:08;2.10;;;1.20;;
60030;SDS011;45901;47.600;9.890;2023-05-07T15:51:35;1.53;;;0.73;;
60030;SDS011;45901;47.600;9.890;2023-05-07T15:54:05;1.20;;;0.90;;
60030;SDS011;45901;47.600;9.890;2023-05-07T15:56:32;1.40;;;0.90;;
60030;SDS011;45901;47.600;9.890;2023-05-07T15:58:59;1.87;;;1.30;;
60030;SDS011;45901;47.600;9.890;2023-05-07T16:01:28;2.30;;;1.10;;
60030;SDS011;45901;47.600;9.890;2023-05-07T16:03:56;2.00;;;1.20;;
60030;SDS011;45901;47.600;9.890;2023-05-07T16:06:24;3.60;;;1.37;;
60030;SDS011;45901;47.600;9.890;2023-05-07T16:08:51;3.63;;;1.00;;
60030;SDS011;45901;47.600;9.890;2023-05-07T16:11:19;2.57;;;1.00;;
60030;SDS011;45901;47.600;9.890;2023-05-07T16:13:46;2.43;;;1.23;;
60030;SDS011;45901;47.600;9.890;2023-05-07T16:16:13;3.57;;;1.70;;
60030;SDS011;45901;47.600;9.890;2023-05-07T16:18:45;2.27;;;1.30;;
60030;SDS011;45901;47.600;9.890;2023-05-07T16:21:22;2.37;;;1.50;;
60030;SDS011;45901;47.600;9.890;2023-05-07T16:23:50;6.67;;;3.00;;
60030;SDS011;45901;47.600;9.890;2023-05-07T16:26:17;4.70;;;2.50;;
60030;SDS011;45901;47.600;9.890;2023-05-07T16:28:45;6.30;;;2.33;;
60030;SDS011;45901;47.600;9.890;2023-05-07T16:31:12;6.03;;;1.93;;
60030;SDS011;45901;47.600;9.890;2023-05-07T16:33:40;2.40;;;1.30;;
60030;SDS011;45901;47.600;9.890;2023-05-07T16:36:07;6.13;;;2.70;;